Time;durP1;ratioP1;P1;durP2;ratioP2;P2;SDS_P1;SDS_P2;PMS_P1;PMS_P2;Temp;Humidity;BMP_temperature;BMP_pressure;BME280_temperature;BME280_humidity;BME280_pressure;Samples;Min_cycle;Max_cycle;Signal;HPM_P1;HPM_P2
2021/10/30 00:02:23;;;;;;;;;;;5.60;99.90;;;;;;8397177;28;19905;-63
2021/10/30 00:06:23;;;;;;;;;;;5.70;99.90;;;;;;8397585;28;19904;-63
2021/10/30 00:10:24;;;;;;;;;;;5.60;99.90;;;;;;8397360;28;19904;-63
2021/10/30 00:14:24;;;;;;;;;;;5.50;99.90;;;;;;8397289;28;19916;-62
2021/10/30 00:18:25;;;;;;;;;;;5.40;99.90;;;;;;8397116;28;19912;-62
2021/10/30 00:22:29;;;;;;;;;;;5.40;99.90;;;;;;8397298;28;19905;-63
2021/10/30 00:26:29;;;;;;;;;;;5.40;99.90;;;;;;8397223;28;19927;-62
2021/10/30 00:30:30;;;;;;;;;;;5.30;99.90;;;;;;8378736;28;19904;-62
2021/10/30 00:34:30;;;;;;;;;;;5.10;99.90;;;;;;8396302;28;19908;-63
2021/10/30 00:38:31;;;;;;;;;;;5.10;99.90;;;;;;8396496;28;19912;-63
2021/10/30 00:42:31;;;;;;;;;;;5.00;99.90;;;;;;8396455;28;19908;-62
2021/10/30 00:46:32;;;;;;;;;;;5.10;99.90;;;;;;8378053;28;20368;-63
2021/10/30 00:50:32;;;;;;;;;;;5.20;99.90;;;;;;8395793;28;19904;-63
2021/10/30 00:54:36;;;;;;;;;;;5.20;99.90;;;;;;8377809;28;19905;-63
2021/10/30 00:58:37;;;;;;;;;;;5.20;99.90;;;;;;8395554;28;19912;-63
2021/10/30 01:02:37;;;;;;;;;;;5.20;99.90;;;;;;8395769;28;19923;-63
2021/10/30 01:06:40;;;;;;;;;;;5.20;99.90;;;;;;8395393;28;20372;-62
2021/10/30 01:10:40;;;;;;;;;;;5.30;99.90;;;;;;8377550;28;19909;-63
2021/10/30 01:14:42;;;;;;;;;;;5.40;99.90;;;;;;8395212;28;19968;-63
2021/10/30 01:18:43;;;;;;;;;;;5.30;99.90;;;;;;8395293;28;20288;-63
2021/10/30 01:22:43;;;;;;;;;;;5.40;99.90;;;;;;8394569;28;19914;-62
2021/10/30 01:26:44;;;;;;;;;;;5.30;99.90;;;;;;8375763;28;19935;-62
2021/10/30 01:30:44;;;;;;;;;;;5.20;99.90;;;;;;8375258;28;20391;-62
2021/10/30 01:34:45;;;;;;;;;;;5.30;99.90;;;;;;8392851;28;19908;-62
2021/10/30 01:38:45;;;;;;;;;;;5.30;99.90;;;;;;8392036;28;19966;-63
2021/10/30 01:42:56;;;;;;;;;;;5.30;99.90;;;;;;8373885;28;19905;-63
2021/10/30 01:46:57;;;;;;;;;;;5.10;99.90;;;;;;8391196;28;19927;-63
2021/10/30 01:50:58;;;;;;;;;;;4.90;99.90;;;;;;8391595;28;19919;-62
2021/10/30 01:54:58;;;;;;;;;;;4.70;99.90;;;;;;8392011;28;19904;-63
2021/10/30 01:58:59;;;;;;;;;;;4.80;99.90;;;;;;8393964;28;19916;-63
2021/10/30 02:02:59;;;;;;;;;;;4.60;99.90;;;;;;8394025;28;19904;-63
2021/10/30 02:07:00;;;;;;;;;;;4.50;99.90;;;;;;8392765;28;19998;-63
2021/10/30 02:11:00;;;;;;;;;;;4.50;99.90;;;;;;8375599;28;20368;-62
2021/10/30 02:15:01;;;;;;;;;;;4.50;99.90;;;;;;8393519;28;19908;-63
2021/10/30 02:19:01;;;;;;;;;;;4.30;99.90;;;;;;8375520;28;19912;-63
2021/10/30 02:23:02;;;;;;;;;;;4.20;99.90;;;;;;8375516;28;19908;-63
2021/10/30 02:27:02;;;;;;;;;;;4.30;99.90;;;;;;8393073;28;19958;-63
2021/10/30 02:31:03;;;;;;;;;;;4.40;99.90;;;;;;8393221;28;19974;-62
2021/10/30 02:35:03;;;;;;;;;;;4.50;99.90;;;;;;8393256;28;20306;-63
2021/10/30 02:39:04;;;;;;;;;;;4.40;99.90;;;;;;8393022;28;20286;-63
2021/10/30 02:43:04;;;;;;;;;;;4.40;99.90;;;;;;8392969;28;20376;-62
2021/10/30 02:47:05;;;;;;;;;;;4.30;99.90;;;;;;8374878;28;19908;-63
2021/10/30 02:51:05;;;;;;;;;;;4.30;99.90;;;;;;8391403;28;19904;-63
2021/10/30 02:55:06;;;;;;;;;;;4.40;99.90;;;;;;8392605;28;20345;-63
2021/10/30 02:59:07;;;;;;;;;;;4.30;99.90;;;;;;8372290;28;19969;-62
2021/10/30 03:03:07;;;;;;;;;;;4.50;99.90;;;;;;8391860;28;20007;-62
2021/10/30 03:07:08;;;;;;;;;;;4.50;99.90;;;;;;8392700;28;19951;-62
2021/10/30 03:11:08;;;;;;;;;;;4.60;99.90;;;;;;8392325;28;19911;-62
2021/10/30 03:15:08;;;;;;;;;;;4.70;99.90;;;;;;8392397;28;19915;-62
2021/10/30 03:19:09;;;;;;;;;;;4.70;99.90;;;;;;8394516;28;19964;-62
2021/10/30 03:23:09;;;;;;;;;;;4.70;99.90;;;;;;8399032;28;19930;-62
2021/10/30 03:27:10;;;;;;;;;;;4.60;99.90;;;;;;8398552;28;19912;-62
2021/10/30 03:31:10;;;;;;;;;;;4.50;99.90;;;;;;8398526;28;19908;-62
2021/10/30 03:35:11;;;;;;;;;;;4.40;99.90;;;;;;8398501;28;20299;-62
2021/10/30 03:39:11;;;;;;;;;;;4.20;99.90;;;;;;8398422;28;19920;-62
2021/10/30 03:43:12;;;;;;;;;;;4.10;99.90;;;;;;8398315;28;19911;-62
2021/10/30 03:47:12;;;;;;;;;;;3.90;99.90;;;;;;8397781;28;19951;-62
2021/10/30 03:51:13;;;;;;;;;;;3.90;99.90;;;;;;8398074;28;19949;-63
2021/10/30 03:55:13;;;;;;;;;;;3.90;99.90;;;;;;8397869;28;19908;-62
2021/10/30 03:59:14;;;;;;;53.10;15.53;;;3.80;99.90;;;;;;8395234;28;20465;-63
2021/10/30 04:03:15;;;;;;;34.58;11.18;;;3.70;99.90;;;;;;8397184;28;20031;-63
2021/10/30 04:07:15;;;;;;;76.68;15.88;;;3.90;99.90;;;;;;8379351;28;20565;-62
2021/10/30 04:11:16;;;;;;;51.17;10.18;;;3.90;99.90;;;;;;8379031;28;20029;-62
2021/10/30 04:15:16;;;;;;;36.33;9.98;;;3.90;99.90;;;;;;8396675;28;20032;-62
2021/10/30 04:19:17;;;;;;;34.33;10.32;;;3.90;99.90;;;;;;8378495;28;20032;-62
2021/10/30 04:23:17;;;;;;;22.65;9.35;;;3.90;99.90;;;;;;8396638;28;20055;-63
2021/10/30 04:27:18;;;;;;;27.50;10.15;;;3.90;99.90;;;;;;8393323;22;20113;-66
2021/10/30 04:31:26;;;;;;;;;;;4.00;99.90;;;;;;8361745;28;20021;-66
2021/10/30 04:35:27;;;;;;;;;;;4.10;99.90;;;;;;8363717;28;19905;-66
2021/10/30 04:39:27;;;;;;;;;;;4.10;99.90;;;;;;8363298;28;19916;-66
2021/10/30 04:43:28;;;;;;;;;;;4.00;99.90;;;;;;8363360;28;19909;-66
2021/10/30 04:47:28;;;;;;;;;;;4.00;99.90;;;;;;8363381;28;19904;-66
2021/10/30 04:51:28;;;;;;;;;;;3.80;99.90;;;;;;8362857;28;19905;-66
2021/10/30 04:55:29;;;;;;;;;;;3.70;99.90;;;;;;8362976;28;19954;-66
2021/10/30 04:59:29;;;;;;;;;;;3.80;99.90;;;;;;8362721;28;19908;-66
2021/10/30 05:03:30;;;;;;;;;;;3.70;99.90;;;;;;8362846;28;19912;-66
2021/10/30 05:07:30;;;;;;;;;;;3.60;99.90;;;;;;8362560;28;19911;-66
2021/10/30 05:11:31;;;;;;;;;;;3.80;99.90;;;;;;8344572;28;19928;-66
2021/10/30 05:15:32;;;;;;;;;;;3.60;99.90;;;;;;8362199;28;20261;-66
2021/10/30 05:19:32;;;;;;;;;;;3.60;99.90;;;;;;8344549;28;19909;-66
2021/10/30 05:23:40;;;;;;;;;;;3.50;99.90;;;;;;8361898;28;19909;-66
2021/10/30 05:27:40;;;;;;;;;;;3.60;99.90;;;;;;8361738;28;19917;-65
2021/10/30 05:31:41;;;;;;;;;;;3.80;99.90;;;;;;8361390;28;19909;-66
2021/10/30 05:35:41;;;;;;;;;;;3.70;99.90;;;;;;8343885;28;19948;-66
2021/10/30 05:39:42;;;;;;;;;;;3.50;99.90;;;;;;8361339;28;19961;-66
2021/10/30 05:43:43;;;;;;;;;;;3.60;99.90;;;;;;8343866;28;19920;-66
2021/10/30 05:47:43;;;;;;;;;;;3.50;99.90;;;;;;8361201;28;20369;-66
2021/10/30 05:51:44;;;;;;;;;;;3.60;99.90;;;;;;8360970;28;19911;-66
2021/10/30 05:55:44;;;;;;;;;;;3.60;99.90;;;;;;8361033;28;19904;-66
2021/10/30 05:59:46;;;;;;;;;;;3.50;99.90;;;;;;8360715;28;19909;-66
2021/10/30 06:03:47;;;;;;;;;;;3.40;99.90;;;;;;8360910;28;20311;-66
2021/10/30 06:07:47;;;;;;;;;;;3.60;99.90;;;;;;8342839;28;19905;-66
2021/10/30 06:11:48;;;;;;;;;;;3.70;99.90;;;;;;8360601;28;20000;-66
2021/10/30 06:15:48;;;;;;;;;;;3.70;99.90;;;;;;8360501;28;19941;-66
2021/10/30 06:19:48;;;;;;;;;;;3.70;99.90;;;;;;8342451;28;20365;-66
2021/10/30 06:23:49;;;;;;;;;;;3.90;99.90;;;;;;8336548;28;19909;-66
2021/10/30 06:27:49;;;;;;;;;;;3.90;99.90;;;;;;8337283;28;19966;-66
2021/10/30 06:31:50;;;;;;;;;;;3.80;99.90;;;;;;8342599;28;19909;-66
2021/10/30 06:35:50;;;;;;;;;;;3.90;99.90;;;;;;8355906;28;19955;-66
2021/10/30 06:39:51;;;;;;;;;;;3.80;99.90;;;;;;8354289;28;19920;-66
2021/10/30 06:43:51;;;;;;;;;;;4.00;99.90;;;;;;8360208;28;19911;-66
2021/10/30 06:47:52;;;;;;;;;;;3.90;99.90;;;;;;8359693;28;19928;-66
2021/10/30 06:51:53;;;;;;;;;;;4.10;99.90;;;;;;8359334;28;20448;-66
2021/10/30 06:55:54;;;;;;;;;;;4.00;99.90;;;;;;8359131;28;19908;-65
2021/10/30 06:59:55;;;;;;;;;;;4.20;99.90;;;;;;8358885;28;19967;-65
2021/10/30 07:03:55;;;;;;;;;;;4.00;99.90;;;;;;8345080;28;19963;-65
2021/10/30 07:07:55;;;;;;;;;;;4.20;99.90;;;;;;8326430;28;19915;-65
2021/10/30 07:11:56;;;;;;;;;;;4.20;99.90;;;;;;8353437;28;20334;-66
2021/10/30 07:15:56;;;;;;;;;;;4.30;99.90;;;;;;8335287;28;19908;-66
2021/10/30 07:19:57;;;;;;;;;;;4.50;99.90;;;;;;8339984;28;19913;-66
2021/10/30 07:24:00;;;;;;;;;;;4.80;99.90;;;;;;8358085;28;20361;-65
2021/10/30 07:28:00;;;;;;;;;;;4.80;99.90;;;;;;8358486;28;19939;-66
2021/10/30 07:32:01;;;;;;;;;;;4.70;99.90;;;;;;8321328;28;20016;-66
2021/10/30 07:36:02;;;;;;;;;;;4.50;99.90;;;;;;8330636;28;19909;-66
2021/10/30 07:40:03;;;;;;;;;;;4.50;99.90;;;;;;8334189;28;19963;-66
2021/10/30 07:44:04;;;;;;;;;;;4.60;99.90;;;;;;8328532;28;20408;-66
2021/10/30 07:48:04;;;;;;;;;;;4.80;99.90;;;;;;8330444;28;19949;-66
2021/10/30 07:52:06;;;;;;;;;;;4.80;99.90;;;;;;8353419;28;19908;-66
2021/10/30 07:56:06;;;;;;;;;;;5.20;99.90;;;;;;8339190;28;19936;-66
2021/10/30 08:00:07;;;;;;;;;;;5.40;99.90;;;;;;8332385;28;20335;-66
2021/10/30 08:04:08;;;;;;;;;;;5.60;99.90;;;;;;8347939;28;19915;-66
2021/10/30 08:08:08;;;;;;;;;;;5.60;99.90;;;;;;8339652;28;19913;-66
2021/10/30 08:12:12;;;;;;;;;;;5.80;99.90;;;;;;8361804;28;20408;-66
2021/10/30 08:16:12;;;;;;;;;;;5.80;99.90;;;;;;8360318;28;20363;-66
2021/10/30 08:20:13;;;;;;;;;;;5.80;99.90;;;;;;8347689;28;19917;-66
2021/10/30 08:24:13;;;;;;;;;;;6.00;99.90;;;;;;8339300;28;20352;-66
2021/10/30 08:28:14;;;;;;;;;;;6.30;99.90;;;;;;8355369;28;19920;-66
2021/10/30 08:32:15;;;;;;;;;;;6.70;99.90;;;;;;8349193;28;20042;-66
2021/10/30 08:36:15;;;;;;;;;;;6.80;99.90;;;;;;8363153;28;19931;-66
2021/10/30 08:40:17;;;;;;;;;;;6.60;99.90;;;;;;8361155;28;19951;-66
2021/10/30 08:44:19;;;;;;;;;;;6.50;99.90;;;;;;8361765;28;20288;-66
2021/10/30 08:48:23;;;;;;;;;;;6.80;99.90;;;;;;8362330;28;20296;-66
2021/10/30 08:52:23;;;;;;;;;;;7.20;99.90;;;;;;8362425;28;19908;-66
2021/10/30 08:56:24;;;;;;;;;;;7.30;99.90;;;;;;8362838;28;20344;-66
2021/10/30 09:00:25;;;;;;;;;;;7.50;99.90;;;;;;8357336;28;20002;-66
2021/10/30 09:04:28;;;;;;;;;;;7.80;99.90;;;;;;8321903;28;20297;-66
2021/10/30 09:08:29;;;;;;;;;;;7.90;99.90;;;;;;8344559;28;19958;-66
2021/10/30 09:12:30;;;;;;;;;;;8.10;99.90;;;;;;8338929;28;19909;-66
2021/10/30 09:16:30;;;;;;;;;;;8.40;99.90;;;;;;8336287;28;20468;-66
2021/10/30 09:20:34;;;;;;;;;;;8.40;99.90;;;;;;8322605;28;19948;-66
2021/10/30 09:24:54;;;;;;;;;;;8.60;99.90;;;;;;8345663;28;19916;-66
2021/10/30 09:28:57;;;;;;;;;;;9.00;99.90;;;;;;8317760;28;19916;-67
2021/10/30 09:33:00;;;;;;;;;;;9.00;99.90;;;;;;8340693;28;19912;-66
2021/10/30 09:37:01;;;;;;;;;;;8.80;99.90;;;;;;8346548;28;20435;-66
2021/10/30 09:41:19;;;;;;;;;;;8.90;99.90;;;;;;8346593;28;19912;-66
2021/10/30 09:45:19;;;;;;;;;;;8.90;99.90;;;;;;8345109;28;19913;-66
2021/10/30 09:49:23;;;;;;;;;;;9.00;99.90;;;;;;8347660;28;19909;-65
2021/10/30 09:53:23;;;;;;;;;;;9.00;99.90;;;;;;8340893;28;19951;-66
2021/10/30 09:57:28;;;;;;;;;;;8.80;99.90;;;;;;8340966;28;19913;-66
2021/10/30 10:01:28;;;;;;;;;;;8.70;99.90;;;;;;8337861;28;19904;-67
2021/10/30 10:05:32;;;;;;;;;;;8.90;99.90;;;;;;8360663;28;19915;-66
2021/10/30 10:09:32;;;;;;;;;;;9.20;99.90;;;;;;8359990;28;19963;-66
2021/10/30 10:13:34;;;;;;;;;;;9.30;99.90;;;;;;8361025;28;19905;-66
2021/10/30 10:17:34;;;;;;;;;;;9.40;99.90;;;;;;8360368;28;19920;-66
2021/10/30 10:21:36;;;;;;;;;;;9.30;99.90;;;;;;8357406;28;19909;-66
2021/10/30 10:25:49;;;;;;;;;;;9.30;99.90;;;;;;8356464;22;20342;-61
2021/10/30 10:29:56;;;;;;;;;;;9.40;99.90;;;;;;8357999;28;19908;-61
2021/10/30 10:34:11;;;;;;;;;;;9.30;99.90;;;;;;8352056;28;20015;-61
2021/10/30 10:38:11;;;;;;;;;;;9.00;99.90;;;;;;8342924;28;19917;-61
2021/10/30 10:42:13;;;;;;;;;;;9.20;99.90;;;;;;8328450;28;19915;-60
2021/10/30 10:46:13;;;;;;;;;;;9.30;99.90;;;;;;8328766;28;19917;-61
2021/10/30 10:50:31;;;;;;;;;;;9.50;99.90;;;;;;8342086;28;19927;-61
2021/10/30 10:54:50;;;;;;;;;;;9.50;99.90;;;;;;8350267;28;19915;-61
2021/10/30 10:59:04;;;;;;;;;;;9.80;99.90;;;;;;8357852;28;20046;-62
2021/10/30 11:03:04;;;;;;;;;;;10.00;99.90;;;;;;8359288;28;19913;-61
2021/10/30 11:07:12;;;;;;;;;;;10.10;99.90;;;;;;8358372;28;19960;-61
2021/10/30 11:11:13;;;;;;;;;;;10.60;99.90;;;;;;8341151;28;19920;-61
2021/10/30 11:15:16;;;;;;;;;;;10.80;99.90;;;;;;8351475;28;19916;-62
2021/10/30 11:19:23;;;;;;;;;;;10.80;99.90;;;;;;8336090;28;20426;-61
2021/10/30 11:23:31;;;;;;;;;;;10.40;99.90;;;;;;8315745;28;19904;-61
2021/10/30 11:27:32;;;;;;;;;;;10.00;99.90;;;;;;8325266;28;19992;-61
2021/10/30 11:31:32;;;;;;;;;;;9.70;99.90;;;;;;8325339;28;19913;-61
2021/10/30 11:35:33;;;;;;;;;;;9.30;99.90;;;;;;8330035;28;19923;-61
2021/10/30 11:39:33;;;;;;;;;;;9.00;99.90;;;;;;8341812;28;19912;-61
2021/10/30 11:43:34;;;;;;;;;;;8.80;99.90;;;;;;8359397;28;19909;-61
2021/10/30 11:47:35;;;;;;;;;;;8.70;99.90;;;;;;8363080;28;20355;-61
2021/10/30 11:51:35;;;;;;;;;;;8.60;99.90;;;;;;8362116;28;19912;-61
2021/10/30 11:55:36;;;;;;;;;;;8.50;99.90;;;;;;8363211;28;19905;-61
2021/10/30 11:59:44;;;;;;;;;;;8.60;99.90;;;;;;8363736;28;20092;-61
2021/10/30 12:03:44;;;;;;;;;;;8.60;99.90;;;;;;8341987;28;19908;-62
2021/10/30 12:07:46;;;;;;;;;;;8.60;99.90;;;;;;8361242;28;19975;-61
2021/10/30 12:11:47;;;;;;;;;;;8.50;99.90;;;;;;8360651;28;20257;-61
2021/10/30 12:15:47;;;;;;;;;;;8.40;99.90;;;;;;8362442;28;19948;-62
2021/10/30 12:19:53;;;;;;;;;;;8.70;99.90;;;;;;8363796;28;20376;-62
2021/10/30 12:23:55;;;;;;;;;;;8.50;99.90;;;;;;8346839;28;20261;-61
2021/10/30 12:27:57;;;;;;;;;;;8.60;99.90;;;;;;8363446;28;20192;-61
2021/10/30 12:31:59;;;;;;;;;;;8.50;99.90;;;;;;8363683;28;19912;-61
2021/10/30 12:36:00;;;;;;;;;;;8.40;99.90;;;;;;8364051;28;19912;-61
2021/10/30 12:40:01;;;;;;;;;;;8.40;99.90;;;;;;8363514;28;20011;-61
2021/10/30 12:44:02;;;;;;;;;;;8.30;99.90;;;;;;8363136;28;19905;-62
2021/10/30 12:48:09;;;;;;;;;;;8.40;99.90;;;;;;8362591;28;19915;-61
2021/10/30 12:52:12;;;;;;;;;;;8.40;99.90;;;;;;8361537;28;19966;-61
2021/10/30 12:56:14;;;;;;;;;;;7.80;99.90;;;;;;8363203;28;20277;-61
2021/10/30 13:00:15;;;;;;;;;;;7.60;99.90;;;;;;8361993;28;20009;-61
2021/10/30 13:04:16;;;;;;;;;;;7.60;99.90;;;;;;8360892;28;19909;-61
2021/10/30 13:08:16;;;;;;;;;;;7.80;99.90;;;;;;8356929;28;20410;-62
2021/10/30 13:12:17;;;;;;;;;;;7.90;99.90;;;;;;8342430;28;19916;-62
2021/10/30 13:16:17;;;;;;;;;;;8.10;99.90;;;;;;8355290;28;19915;-61
2021/10/30 13:20:18;;;;;;;;;;;8.40;99.90;;;;;;8343223;28;19908;-61
2021/10/30 13:24:19;;;;;;;;;;;8.50;99.90;;;;;;8355028;28;19909;-62
2021/10/30 13:28:19;;;;;;;;;;;8.50;99.90;;;;;;8359798;28;19921;-61
2021/10/30 13:32:20;;;;;;;;;;;8.50;99.90;;;;;;8360968;28;19912;-62
2021/10/30 13:36:25;;;;;;;;;;;8.50;99.90;;;;;;8358624;28;19913;-61
2021/10/30 13:40:25;;;;;;;;;;;8.50;99.90;;;;;;8358594;28;20466;-63
2021/10/30 13:44:26;;;;;;;;;;;8.40;99.90;;;;;;8360158;28;19917;-61
2021/10/30 13:48:26;;;;;;;;;;;8.30;99.90;;;;;;8359975;28;19959;-61
2021/10/30 13:52:27;;;;;;;;;;;8.50;99.90;;;;;;8360618;28;20394;-62
2021/10/30 13:56:27;;;;;;;;;;;8.50;99.90;;;;;;8357939;28;19913;-61
2021/10/30 14:00:28;;;;;;;;;;;8.40;99.90;;;;;;8360368;28;20308;-61
2021/10/30 14:04:29;;;;;;;;;;;8.30;99.90;;;;;;8360023;28;19928;-62
2021/10/30 14:08:30;;;;;;;;;;;8.50;99.90;;;;;;8360268;28;19904;-64
2021/10/30 14:12:30;;;;;;;;;;;8.40;99.90;;;;;;8360975;28;19940;-65
2021/10/30 14:16:34;;;;;;;;;;;8.50;99.90;;;;;;8360979;28;19931;-64
2021/10/30 14:20:34;;;;;;;;;;;8.30;99.90;;;;;;8354009;28;19923;-63
2021/10/30 14:24:35;;;;;;;;;;;8.50;99.90;;;;;;8355106;28;19905;-64
2021/10/30 14:28:36;;;;;;;;;;;8.40;99.90;;;;;;8359392;28;19928;-65
2021/10/30 14:32:39;;;;;;;;;;;8.40;99.90;;;;;;8356195;28;20299;-64
2021/10/30 14:36:39;;;;;;;;;;;8.30;99.90;;;;;;8352576;28;20463;-64
2021/10/30 14:40:42;;;;;;;;;;;8.40;99.90;;;;;;8335674;28;19920;-64
2021/10/30 14:44:44;;;;;;;;;;;8.50;99.90;;;;;;8336673;28;20688;-64
2021/10/30 14:48:45;;;;;;;;;;;8.50;99.90;;;;;;8353432;28;19905;-61
2021/10/30 14:52:45;;;;;;;;;;;8.70;99.90;;;;;;8337778;28;20387;-62
2021/10/30 14:56:46;;;;;;;;;;;8.60;99.90;;;;;;8337330;28;19916;-61
2021/10/30 15:00:47;;;;;;;;;;;8.70;99.90;;;;;;8353053;28;19951;-61
2021/10/30 15:04:47;;;;;;;;;;;8.60;99.90;;;;;;8356089;28;19931;-62
2021/10/30 15:08:48;;;;;;;;;;;8.70;99.90;;;;;;8346402;28;19908;-61
2021/10/30 15:12:48;;;;;;;;;;;8.80;99.90;;;;;;8357984;28;19974;-62
2021/10/30 15:16:49;;;;;;;;;;;8.90;99.90;;;;;;8363364;28;19932;-62
2021/10/30 15:20:49;;;;;;;;;;;9.00;99.90;;;;;;8363777;28;20317;-61
2021/10/30 15:24:50;;;;;;;;;;;9.10;99.90;;;;;;8358594;28;20447;-61
2021/10/30 15:28:51;;;;;;;;;;;9.10;99.90;;;;;;8363208;28;19935;-61
2021/10/30 15:32:51;;;;;;;;;;;9.20;99.90;;;;;;8361254;28;19909;-61
2021/10/30 15:36:51;;;;;;;;;;;9.30;99.90;;;;;;8363225;28;20002;-62
2021/10/30 15:40:52;;;;;;;;;;;9.20;99.90;;;;;;8364600;28;19939;-61
2021/10/30 15:44:53;;;;;;;;;;;9.20;99.90;;;;;;8364840;28;19915;-62
2021/10/30 15:48:53;;;;;;;;;;;9.20;99.90;;;;;;8364244;28;19905;-62
2021/10/30 15:52:54;;;;;;;;;;;9.20;99.90;;;;;;8364552;28;19905;-61
2021/10/30 15:56:54;;;;;;;;;;;8.90;99.90;;;;;;8338124;28;19992;-61
2021/10/30 16:00:55;;;;;;;;;;;8.80;99.90;;;;;;8363356;28;19916;-61
2021/10/30 16:04:55;;;;;;;;;;;8.80;99.90;;;;;;8363779;28;19909;-61
2021/10/30 16:08:57;;;;;;;;;;;8.70;99.90;;;;;;8355039;28;19913;-61
2021/10/30 16:12:58;;;;;;;;;;;8.60;99.90;;;;;;8362012;28;19916;-62
2021/10/30 16:16:59;;;;;;;;;;;8.50;99.90;;;;;;8339715;28;19944;-62
2021/10/30 16:20:59;;;;;;;;;;;8.40;99.90;;;;;;8361738;28;19920;-61
2021/10/30 16:25:00;;;;;;;;;;;8.60;99.90;;;;;;8363781;28;19912;-61
2021/10/30 16:29:01;;;;;;;;;;;8.60;99.90;;;;;;8360388;28;19920;-63
2021/10/30 16:33:02;;;;;;;;;;;8.50;99.90;;;;;;8419156;22;19924;-62
2021/10/30 16:37:02;;;;;;;;;;;8.40;99.90;;;;;;8392673;28;19967;-62
2021/10/30 16:41:03;;;;;;;;;;;8.40;99.90;;;;;;8395482;28;19916;-62
2021/10/30 16:45:04;;;;;;;;;;;8.30;99.90;;;;;;8396233;28;19912;-62
2021/10/30 16:49:06;;;;;;;;;;;8.20;99.90;;;;;;8396670;28;19904;-62
2021/10/30 16:53:09;;;;;;;;;;;8.00;99.90;;;;;;8392355;28;19954;-62
2021/10/30 16:57:10;;;;;;;;;;;8.00;99.90;;;;;;8374481;28;19912;-62
2021/10/30 17:01:11;;;;;;;;;;;8.10;99.90;;;;;;8393831;28;19912;-62
2021/10/30 17:05:11;;;;;;;;;;;8.30;99.90;;;;;;8395497;28;19912;-62
2021/10/30 17:09:12;;;;;;;;;;;8.20;99.90;;;;;;8385697;28;19909;-62
2021/10/30 17:13:12;;;;;;;;;;;8.40;99.90;;;;;;8383223;28;19912;-63
2021/10/30 17:17:13;;;;;;;;;;;8.20;99.90;;;;;;8384965;28;20398;-63
2021/10/30 17:21:14;;;;;;;;;;;8.10;99.90;;;;;;8384636;28;19920;-63
2021/10/30 17:25:14;;;;;;;;;;;8.10;99.90;;;;;;8391391;28;19969;-63
2021/10/30 17:29:15;;;;;;;;;;;8.10;99.90;;;;;;8391524;28;19993;-63
2021/10/30 17:33:15;;;;;;;;;;;8.10;99.90;;;;;;8392550;28;19912;-63
2021/10/30 17:37:16;;;;;;;;;;;8.10;99.90;;;;;;8375382;28;19923;-63
2021/10/30 17:41:16;;;;;;;;;;;7.90;99.90;;;;;;8393518;28;20441;-62
2021/10/30 17:45:18;;;;;;;;;;;8.10;99.90;;;;;;8393279;28;20507;-62
2021/10/30 17:49:18;;;;;;;;;;;7.90;99.90;;;;;;8358704;28;19909;-62
2021/10/30 17:53:21;;;;;;;;;;;7.70;99.90;;;;;;8358999;28;20010;-63
2021/10/30 17:57:21;;;;;;;;;;;7.50;99.90;;;;;;8369016;28;19999;-62
2021/10/30 18:01:22;;;;;;;;;;;7.50;99.90;;;;;;8394142;28;20008;-63
2021/10/30 18:05:30;;;;;;;;;;;7.30;99.90;;;;;;8376449;28;20371;-63
2021/10/30 18:09:31;;;;;;;;;;;7.30;99.90;;;;;;8394045;28;20314;-63
2021/10/30 18:13:32;;;;;;;;;;;7.10;99.90;;;;;;8393986;28;19908;-63
2021/10/30 18:17:33;;;;;;;;;;;7.10;99.90;;;;;;8393824;28;20364;-63
2021/10/30 18:21:34;;;;;;;;;;;7.10;99.90;;;;;;8375643;28;19911;-63
2021/10/30 18:25:35;;;;;;;;;;;7.00;99.90;;;;;;8393709;28;19904;-63
2021/10/30 18:29:35;;;;;;;;;;;7.10;99.90;;;;;;8393323;28;19991;-63
2021/10/30 18:33:35;;;;;;;;;;;7.10;99.90;;;;;;8393345;28;19912;-63
2021/10/30 18:37:36;;;;;;;;;;;7.10;99.90;;;;;;8393418;28;19908;-63
2021/10/30 18:41:36;;;;;;;;;;;6.90;99.90;;;;;;8393371;28;20284;-63
2021/10/30 18:45:37;;;;;;;;;;;6.80;99.90;;;;;;8393263;28;19905;-63
2021/10/30 18:49:38;;;;;;;;;;;6.90;99.90;;;;;;8386213;28;20427;-63
2021/10/30 18:53:40;;;;;;;;;;;6.90;99.90;;;;;;8367651;28;20296;-63
2021/10/30 18:57:40;;;;;;;;;;;7.00;99.90;;;;;;8365114;28;19965;-63
2021/10/30 19:01:41;;;;;;;;;;;6.90;99.90;;;;;;8388069;28;19912;-63
2021/10/30 19:05:41;;;;;;;;;;;7.10;99.90;;;;;;8370740;28;19919;-63
2021/10/30 19:09:42;;;;;;;;;;;6.90;99.90;;;;;;8384826;28;19966;-63
2021/10/30 19:13:43;;;;;;;;;;;6.70;99.90;;;;;;8387493;28;20531;-63
2021/10/30 19:17:45;;;;;;;;;;;6.80;99.90;;;;;;8388086;28;19916;-62
2021/10/30 19:21:45;;;;;;;;;;;6.80;99.90;;;;;;8387111;28;19912;-63
2021/10/30 19:25:46;;;;;;;;;;;6.90;99.90;;;;;;8369603;28;20566;-62
2021/10/30 19:29:47;;;;;;;;;;;6.80;99.90;;;;;;8386880;28;19912;-62
2021/10/30 19:33:47;;;;;;;;;;;6.90;99.90;;;;;;8369794;28;19912;-63
2021/10/30 19:37:48;;;;;;;;;;;7.00;99.90;;;;;;8387549;28;20333;-63
2021/10/30 19:41:49;;;;;;;;;;;6.90;99.90;;;;;;8387566;28;19969;-62
2021/10/30 19:45:50;;;;;;;;;;;7.00;99.90;;;;;;8369420;28;19912;-62
2021/10/30 19:49:50;;;;;;;;;;;6.80;99.90;;;;;;8369118;28;19915;-62
2021/10/30 19:53:51;;;;;;;;;;;6.40;99.90;;;;;;8369693;28;19909;-63
2021/10/30 19:57:51;;;;;;;;;;;6.30;99.90;;;;;;8369970;28;19916;-63
2021/10/30 20:01:52;;;;;;;;;;;6.30;99.90;;;;;;8390354;28;20352;-62
2021/10/30 20:05:52;;;;;;;;;;;6.40;99.90;;;;;;8376928;28;20258;-62
2021/10/30 20:09:53;;;;;;;;;;;6.30;99.90;;;;;;8376043;28;19912;-62
2021/10/30 20:13:53;;;;;;;;;;;6.40;99.90;;;;;;8393373;28;20339;-63
2021/10/30 20:17:54;;;;;;;;;;;6.50;99.90;;;;;;8393571;28;19908;-63
2021/10/30 20:21:54;;;;;;;;;;;6.50;99.90;;;;;;8393332;28;19931;-62
2021/10/30 20:25:55;;;;;;;;;;;6.50;99.90;;;;;;8392951;28;19981;-63
2021/10/30 20:29:55;;;;;;;;;;;6.40;99.90;;;;;;8393365;28;19930;-63
2021/10/30 20:33:56;;;;;;;;;;;6.30;99.90;;;;;;8393759;28;20335;-62
2021/10/30 20:37:56;;;;;;;;;;;6.40;99.90;;;;;;8375135;28;19920;-63
2021/10/30 20:41:58;;;;;;;;;;;6.40;99.90;;;;;;8374931;28;19908;-62
2021/10/30 20:46:03;;;;;;;;;;;6.30;99.90;;;;;;8392983;28;19908;-63
2021/10/30 20:50:03;;;;;;;;;;;6.40;99.90;;;;;;8391700;28;19912;-63
2021/10/30 20:54:04;;;;;;;;;;;6.50;99.90;;;;;;8392596;28;20648;-62
2021/10/30 20:58:07;;;;;;;;;;;6.50;99.90;;;;;;8392677;28;19919;-62
2021/10/30 21:02:08;;;;;;;;;;;6.50;99.90;;;;;;8391689;28;20596;-63
2021/10/30 21:06:08;;;;;;;;;;;6.50;99.90;;;;;;8392379;28;19908;-62
2021/10/30 21:10:09;;;;;;;;;;;6.70;99.90;;;;;;8392102;28;19923;-63
2021/10/30 21:14:10;;;;;;;;;;;6.70;99.90;;;;;;8391077;28;19912;-64
2021/10/30 21:18:10;;;;;;;;;;;6.70;99.90;;;;;;8390443;28;19916;-63
2021/10/30 21:22:11;;;;;;;;;;;6.70;99.90;;;;;;8371193;28;20391;-62
2021/10/30 21:26:12;;;;;;;;;;;6.80;99.90;;;;;;8374410;28;19916;-63
2021/10/30 21:30:16;;;;;;;;;;;7.00;99.90;;;;;;8390440;28;19935;-63
2021/10/30 21:34:16;;;;;;;;;;;7.00;99.90;;;;;;8391323;28;19966;-63
2021/10/30 21:38:17;;;;;;;;;;;6.90;99.90;;;;;;8383990;28;19966;-63
2021/10/30 21:42:17;;;;;;;;;;;7.10;99.90;;;;;;8385629;28;20326;-62
2021/10/30 21:46:18;;;;;;;;;;;7.10;99.90;;;;;;8373074;28;20327;-63
2021/10/30 21:50:18;;;;;;;;;;;7.00;99.90;;;;;;8371207;28;19913;-63
2021/10/30 21:54:19;;;;;;;;;;;7.10;99.90;;;;;;8385467;28;20003;-63
2021/10/30 21:58:19;;;;;;;;;;;7.10;99.90;;;;;;8388734;28;19952;-63
2021/10/30 22:02:20;;;;;;;;;;;7.20;99.90;;;;;;8388302;28;20334;-63
2021/10/30 22:06:20;;;;;;;;;;;7.30;99.90;;;;;;8388720;28;19905;-63
2021/10/30 22:10:21;;;;;;;;;;;7.40;99.90;;;;;;8369455;28;19985;-63
2021/10/30 22:14:21;;;;;;;;;;;7.30;99.90;;;;;;8369005;28;19935;-63
2021/10/30 22:18:25;;;;;;;;;;;7.40;99.90;;;;;;8387789;28;19966;-63
2021/10/30 22:22:27;;;;;;;;;;;7.30;99.90;;;;;;8387791;28;19918;-63
2021/10/30 22:26:28;;;;;;;;;;;7.50;99.90;;;;;;8388750;28;20391;-63
2021/10/30 22:30:28;;;;;;;;;;;7.40;99.90;;;;;;8389299;28;19912;-62
2021/10/30 22:34:29;;;;;;;;;;;7.40;99.90;;;;;;8389298;28;19911;-62
2021/10/30 22:38:30;;;;;;;;;;;7.40;99.90;;;;;;8388302;28;19914;-63
2021/10/30 22:42:30;;;;;;;;;;;7.50;99.90;;;;;;8389544;28;20360;-63
2021/10/30 22:46:30;;;;;;;;;;;7.50;99.90;;;;;;8371652;28;20346;-63
2021/10/30 22:50:31;;;;;;;;;;;7.50;99.90;;;;;;8388965;28;19916;-63
2021/10/30 22:54:32;;;;;;;;;;;7.60;99.90;;;;;;8389533;22;19931;-65
2021/10/30 22:58:32;;;;;;;;;;;7.70;99.90;;;;;;8324405;28;20308;-65
2021/10/30 23:02:33;;;;;;;;;;;7.60;99.90;;;;;;8325457;28;20411;-65
2021/10/30 23:06:33;;;;;;;;;;;7.60;99.90;;;;;;8325796;28;20423;-64
2021/10/30 23:10:34;;;;;;;;;;;7.70;99.90;;;;;;8326449;28;19992;-64
2021/10/30 23:14:36;;;;;;;;;;;7.70;99.90;;;;;;8325863;28;19909;-64
2021/10/30 23:18:36;;;;;;;;;;;7.70;99.90;;;;;;8325379;28;19967;-65
2021/10/30 23:22:37;;;;;;;;;;;7.80;99.90;;;;;;8325924;28;20304;-65
2021/10/30 23:26:37;;;;;;;;;;;8.00;99.90;;;;;;8326120;28;19941;-63
2021/10/30 23:30:38;;;;;;;;;;;7.90;99.90;;;;;;8324604;28;19951;-64
2021/10/30 23:34:38;;;;;;;;;;;8.00;99.90;;;;;;8325451;28;20549;-64
2021/10/30 23:38:39;;;;;;;;;;;8.10;99.90;;;;;;8332287;28;19916;-64